sensor_id;sensor_type;location;lat;lon;timestamp;P1;durP1;ratioP1;P2;durP2;ratioP2
7171;SDS011;3627;46.544;14.944;2024-02-14T00:02:13;1.70;;;1.70;;
7171;SDS011;3627;46.544;14.944;2024-02-14T00:04:40;1.70;;;1.70;;
7171;SDS011;3627;46.544;14.944;2024-02-14T00:07:06;1.77;;;1.77;;
7171;SDS011;3627;46.544;14.944;2024-02-14T00:09:34;1.80;;;1.80;;
7171;SDS011;3627;46.544;14.944;2024-02-14T00:12:00;1.60;;;1.60;;
7171;SDS011;3627;46.544;14.944;2024-02-14T00:14:26;1.60;;;1.60;;
7171;SDS011;3627;46.544;14.944;2024-02-14T00:16:53;1.67;;;1.67;;
7171;SDS011;3627;46.544;14.944;2024-02-14T00:19:19;1.60;;;1.60;;
7171;SDS011;3627;46.544;14.944;2024-02-14T00:21:46;1.80;;;1.80;;
7171;SDS011;3627;46.544;14.944;2024-02-14T00:24:12;1.63;;;1.63;;
7171;SDS011;3627;46.544;14.944;2024-02-14T00:26:40;1.63;;;1.63;;
7171;SDS011;3627;46.544;14.944;2024-02-14T00:29:06;1.63;;;1.63;;
7171;SDS011;3627;46.544;14.944;2024-02-14T00:31:33;1.83;;;1.83;;
7171;SDS011;3627;46.544;14.944;2024-02-14T00:33:59;1.60;;;1.60;;
7171;SDS011;3627;46.544;14.944;2024-02-14T00:36:26;1.93;;;1.93;;
7171;SDS011;3627;46.544;14.944;2024-02-14T00:38:52;1.67;;;1.67;;
7171;SDS011;3627;46.544;14.944;2024-02-14T00:41:18;1.80;;;1.80;;
7171;SDS011;3627;46.544;14.944;2024-02-14T00:43:46;1.70;;;1.70;;
7171;SDS011;3627;46.544;14.944;2024-02-14T00:46:15;1.90;;;1.80;;
7171;SDS011;3627;46.544;14.944;2024-02-14T00:48:41;1.70;;;1.70;;
7171;SDS011;3627;46.544;14.944;2024-02-14T00:51:09;1.87;;;1.80;;
7171;SDS011;3627;46.544;14.944;2024-02-14T00:53:36;1.70;;;1.70;;
7171;SDS011;3627;46.544;14.944;2024-02-14T00:56:02;1.70;;;1.70;;
7171;SDS011;3627;46.544;14.944;2024-02-14T00:58:29;1.67;;;1.67;;
7171;SDS011;3627;46.544;14.944;2024-02-14T01:00:56;1.60;;;1.60;;
7171;SDS011;3627;46.544;14.944;2024-02-14T01:03:23;1.50;;;1.50;;
7171;SDS011;3627;46.544;14.944;2024-02-14T01:05:49;1.90;;;1.80;;
7171;SDS011;3627;46.544;14.944;2024-02-14T01:08:16;1.90;;;1.80;;
7171;SDS011;3627;46.544;14.944;2024-02-14T01:10:42;1.70;;;1.70;;
7171;SDS011;3627;46.544;14.944;2024-02-14T01:13:08;1.87;;;1.80;;
7171;SDS011;3627;46.544;14.944;2024-02-14T01:15:35;1.70;;;1.70;;
7171;SDS011;3627;46.544;14.944;2024-02-14T01:18:03;2.00;;;1.90;;
7171;SDS011;3627;46.544;14.944;2024-02-14T01:20:29;1.93;;;1.83;;
7171;SDS011;3627;46.544;14.944;2024-02-14T01:22:55;1.87;;;1.77;;
7171;SDS011;3627;46.544;14.944;2024-02-14T01:25:22;1.90;;;1.80;;
7171;SDS011;3627;46.544;14.944;2024-02-14T01:27:48;1.90;;;1.80;;
7171;SDS011;3627;46.544;14.944;2024-02-14T01:30:17;1.90;;;1.80;;
7171;SDS011;3627;46.544;14.944;2024-02-14T01:32:44;1.93;;;1.83;;
7171;SDS011;3627;46.544;14.944;2024-02-14T01:35:11;1.93;;;1.83;;
7171;SDS011;3627;46.544;14.944;2024-02-14T01:37:38;1.90;;;1.80;;
7171;SDS011;3627;46.544;14.944;2024-02-14T01:40:05;1.90;;;1.80;;
7171;SDS011;3627;46.544;14.944;2024-02-14T01:42:33;1.77;;;1.77;;
7171;SDS011;3627;46.544;14.944;2024-02-14T01:44:59;1.80;;;1.80;;
7171;SDS011;3627;46.544;14.944;2024-02-14T01:47:28;2.00;;;1.90;;
7171;SDS011;3627;46.544;14.944;2024-02-14T01:49:54;1.70;;;1.70;;
7171;SDS011;3627;46.544;14.944;2024-02-14T01:52:22;1.77;;;1.70;;
7171;SDS011;3627;46.544;14.944;2024-02-14T01:54:48;1.90;;;1.80;;
7171;SDS011;3627;46.544;14.944;2024-02-14T01:57:15;1.93;;;1.83;;
7171;SDS011;3627;46.544;14.944;2024-02-14T01:59:41;1.60;;;1.60;;
7171;SDS011;3627;46.544;14.944;2024-02-14T02:02:08;2.10;;;2.00;;
7171;SDS011;3627;46.544;14.944;2024-02-14T02:04:34;1.63;;;1.63;;
7171;SDS011;3627;46.544;14.944;2024-02-14T02:07:01;1.90;;;1.80;;
7171;SDS011;3627;46.544;14.944;2024-02-14T02:09:30;1.93;;;1.83;;
7171;SDS011;3627;46.544;14.944;2024-02-14T02:11:58;1.83;;;1.73;;
7171;SDS011;3627;46.544;14.944;2024-02-14T02:14:25;1.80;;;1.70;;
7171;SDS011;3627;46.544;14.944;2024-02-14T02:16:52;1.80;;;1.70;;
7171;SDS011;3627;46.544;14.944;2024-02-14T02:19:18;1.90;;;1.80;;
7171;SDS011;3627;46.544;14.944;2024-02-14T02:21:44;1.83;;;1.73;;
7171;SDS011;3627;46.544;14.944;2024-02-14T02:24:13;1.60;;;1.60;;
7171;SDS011;3627;46.544;14.944;2024-02-14T02:26:39;1.90;;;1.80;;
7171;SDS011;3627;46.544;14.944;2024-02-14T02:29:06;1.97;;;1.87;;
7171;SDS011;3627;46.544;14.944;2024-02-14T02:31:32;2.07;;;1.97;;
7171;SDS011;3627;46.544;14.944;2024-02-14T02:33:58;1.80;;;1.77;;
7171;SDS011;3627;46.544;14.944;2024-02-14T02:36:25;2.00;;;1.90;;
7171;SDS011;3627;46.544;14.944;2024-02-14T02:38:54;1.80;;;1.70;;
7171;SDS011;3627;46.544;14.944;2024-02-14T02:41:22;1.80;;;1.70;;
7171;SDS011;3627;46.544;14.944;2024-02-14T02:43:49;1.90;;;1.80;;
7171;SDS011;3627;46.544;14.944;2024-02-14T02:46:16;1.93;;;1.83;;
7171;SDS011;3627;46.544;14.944;2024-02-14T02:48:42;2.07;;;1.97;;
7171;SDS011;3627;46.544;14.944;2024-02-14T02:51:08;2.03;;;1.93;;
7171;SDS011;3627;46.544;14.944;2024-02-14T02:53:35;1.70;;;1.70;;
7171;SDS011;3627;46.544;14.944;2024-02-14T02:56:01;1.90;;;1.80;;
7171;SDS011;3627;46.544;14.944;2024-02-14T02:58:30;1.80;;;1.70;;
7171;SDS011;3627;46.544;14.944;2024-02-14T03:00:56;1.83;;;1.73;;
7171;SDS011;3627;46.544;14.944;2024-02-14T03:03:23;1.60;;;1.60;;
7171;SDS011;3627;46.544;14.944;2024-02-14T03:05:53;1.80;;;1.70;;
7171;SDS011;3627;46.544;14.944;2024-02-14T03:08:20;1.70;;;1.70;;
7171;SDS011;3627;46.544;14.944;2024-02-14T03:10:46;1.80;;;1.80;;
7171;SDS011;3627;46.544;14.944;2024-02-14T03:13:14;2.00;;;1.90;;
7171;SDS011;3627;46.544;14.944;2024-02-14T03:15:44;1.80;;;1.70;;
7171;SDS011;3627;46.544;14.944;2024-02-14T03:18:11;1.70;;;1.60;;
7171;SDS011;3627;46.544;14.944;2024-02-14T03:20:38;1.80;;;1.80;;
7171;SDS011;3627;46.544;14.944;2024-02-14T03:23:04;2.00;;;1.90;;
7171;SDS011;3627;46.544;14.944;2024-02-14T03:25:31;1.90;;;1.80;;
7171;SDS011;3627;46.544;14.944;2024-02-14T03:27:58;1.87;;;1.77;;
7171;SDS011;3627;46.544;14.944;2024-02-14T03:30:24;1.90;;;1.80;;
7171;SDS011;3627;46.544;14.944;2024-02-14T03:32:52;1.80;;;1.70;;
7171;SDS011;3627;46.544;14.944;2024-02-14T03:35:18;2.00;;;1.90;;
7171;SDS011;3627;46.544;14.944;2024-02-14T03:37:46;2.00;;;1.90;;
7171;SDS011;3627;46.544;14.944;2024-02-14T03:40:13;1.90;;;1.80;;
7171;SDS011;3627;46.544;14.944;2024-02-14T03:42:40;1.70;;;1.70;;
7171;SDS011;3627;46.544;14.944;2024-02-14T03:45:07;2.07;;;1.97;;
7171;SDS011;3627;46.544;14.944;2024-02-14T03:47:33;1.90;;;1.80;;
7171;SDS011;3627;46.544;14.944;2024-02-14T03:50:01;1.97;;;1.87;;
7171;SDS011;3627;46.544;14.944;2024-02-14T03:52:29;1.90;;;1.80;;
7171;SDS011;3627;46.544;14.944;2024-02-14T03:54:57;1.80;;;1.70;;
7171;SDS011;3627;46.544;14.944;2024-02-14T03:57:24;1.80;;;1.70;;
7171;SDS011;3627;46.544;14.944;2024-02-14T03:59:53;1.80;;;1.70;;
7171;SDS011;3627;46.544;14.944;2024-02-14T04:02:20;1.93;;;1.83;;
7171;SDS011;3627;46.544;14.944;2024-02-14T04:04:48;1.90;;;1.80;;
7171;SDS011;3627;46.544;14.944;2024-02-14T04:07:16;1.80;;;1.70;;
7171;SDS011;3627;46.544;14.944;2024-02-14T04:09:42;1.80;;;1.70;;
7171;SDS011;3627;46.544;14.944;2024-02-14T04:12:09;1.80;;;1.70;;
7171;SDS011;3627;46.544;14.944;2024-02-14T04:14:36;1.90;;;1.80;;
7171;SDS011;3627;46.544;14.944;2024-02-14T04:17:04;1.90;;;1.80;;
7171;SDS011;3627;46.544;14.944;2024-02-14T04:19:30;1.70;;;1.60;;
7171;SDS011;3627;46.544;14.944;2024-02-14T04:21:57;1.87;;;1.77;;
7171;SDS011;3627;46.544;14.944;2024-02-14T04:24:25;1.93;;;1.83;;
7171;SDS011;3627;46.544;14.944;2024-02-14T04:26:52;1.90;;;1.80;;
7171;SDS011;3627;46.544;14.944;2024-02-14T04:29:20;1.90;;;1.80;;
7171;SDS011;3627;46.544;14.944;2024-02-14T04:31:46;1.90;;;1.80;;
7171;SDS011;3627;46.544;14.944;2024-02-14T04:34:14;1.80;;;1.70;;
7171;SDS011;3627;46.544;14.944;2024-02-14T04:36:40;1.90;;;1.80;;
7171;SDS011;3627;46.544;14.944;2024-02-14T04:39:06;1.80;;;1.70;;
7171;SDS011;3627;46.544;14.944;2024-02-14T04:41:35;2.00;;;1.90;;
7171;SDS011;3627;46.544;14.944;2024-02-14T04:44:02;1.90;;;1.80;;
7171;SDS011;3627;46.544;14.944;2024-02-14T04:46:29;1.90;;;1.80;;
7171;SDS011;3627;46.544;14.944;2024-02-14T04:48:56;1.90;;;1.80;;
7171;SDS011;3627;46.544;14.944;2024-02-14T04:51:22;2.00;;;1.90;;
7171;SDS011;3627;46.544;14.944;2024-02-14T04:53:48;1.80;;;1.70;;
7171;SDS011;3627;46.544;14.944;2024-02-14T04:56:15;1.80;;;1.70;;
7171;SDS011;3627;46.544;14.944;2024-02-14T04:58:42;2.00;;;1.90;;
7171;SDS011;3627;46.544;14.944;2024-02-14T05:01:09;2.00;;;1.90;;
7171;SDS011;3627;46.544;14.944;2024-02-14T05:03:35;1.90;;;1.80;;
7171;SDS011;3627;46.544;14.944;2024-02-14T05:06:03;1.97;;;1.87;;
7171;SDS011;3627;46.544;14.944;2024-02-14T05:08:30;1.90;;;1.80;;
7171;SDS011;3627;46.544;14.944;2024-02-14T05:10:57;1.90;;;1.80;;
7171;SDS011;3627;46.544;14.944;2024-02-14T05:13:23;2.00;;;1.90;;
7171;SDS011;3627;46.544;14.944;2024-02-14T05:15:51;1.80;;;1.70;;
7171;SDS011;3627;46.544;14.944;2024-02-14T05:18:17;2.00;;;1.90;;
7171;SDS011;3627;46.544;14.944;2024-02-14T05:20:44;1.80;;;1.70;;
7171;SDS011;3627;46.544;14.944;2024-02-14T05:23:10;1.93;;;1.83;;
7171;SDS011;3627;46.544;14.944;2024-02-14T05:25:37;1.80;;;1.70;;
7171;SDS011;3627;46.544;14.944;2024-02-14T05:28:04;1.90;;;1.80;;
7171;SDS011;3627;46.544;14.944;2024-02-14T05:30:31;2.00;;;1.90;;
7171;SDS011;3627;46.544;14.944;2024-02-14T05:32:59;1.90;;;1.80;;
7171;SDS011;3627;46.544;14.944;2024-02-14T05:35:26;1.90;;;1.80;;
7171;SDS011;3627;46.544;14.944;2024-02-14T05:37:52;1.90;;;1.80;;
7171;SDS011;3627;46.544;14.944;2024-02-14T05:40:19;1.93;;;1.83;;
7171;SDS011;3627;46.544;14.944;2024-02-14T05:42:45;1.70;;;1.60;;
7171;SDS011;3627;46.544;14.944;2024-02-14T05:45:12;1.60;;;1.60;;
7171;SDS011;3627;46.544;14.944;2024-02-14T05:47:39;1.93;;;1.83;;
7171;SDS011;3627;46.544;14.944;2024-02-14T05:50:07;1.80;;;1.70;;
7171;SDS011;3627;46.544;14.944;2024-02-14T05:52:36;1.70;;;1.70;;
7171;SDS011;3627;46.544;14.944;2024-02-14T05:55:03;1.80;;;1.70;;
7171;SDS011;3627;46.544;14.944;2024-02-14T05:57:30;2.13;;;2.03;;
7171;SDS011;3627;46.544;14.944;2024-02-14T05:59:56;1.80;;;1.70;;
7171;SDS011;3627;46.544;14.944;2024-02-14T06:02:22;1.80;;;1.70;;
7171;SDS011;3627;46.544;14.944;2024-02-14T06:04:49;2.03;;;1.93;;
7171;SDS011;3627;46.544;14.944;2024-02-14T06:07:16;2.00;;;1.90;;
7171;SDS011;3627;46.544;14.944;2024-02-14T06:09:43;1.90;;;1.80;;
7171;SDS011;3627;46.544;14.944;2024-02-14T06:12:10;2.00;;;1.90;;
7171;SDS011;3627;46.544;14.944;2024-02-14T06:14:37;1.90;;;1.80;;
7171;SDS011;3627;46.544;14.944;2024-02-14T06:17:03;1.90;;;1.80;;
7171;SDS011;3627;46.544;14.944;2024-02-14T06:19:30;1.97;;;1.87;;
7171;SDS011;3627;46.544;14.944;2024-02-14T06:21:57;2.00;;;1.90;;
7171;SDS011;3627;46.544;14.944;2024-02-14T06:24:25;2.00;;;1.90;;
7171;SDS011;3627;46.544;14.944;2024-02-14T06:26:51;1.70;;;1.70;;
7171;SDS011;3627;46.544;14.944;2024-02-14T06:29:18;1.80;;;1.70;;
7171;SDS011;3627;46.544;14.944;2024-02-14T06:31:45;2.20;;;2.10;;
7171;SDS011;3627;46.544;14.944;2024-02-14T06:34:12;1.90;;;1.80;;
7171;SDS011;3627;46.544;14.944;2024-02-14T06:36:38;1.80;;;1.70;;
7171;SDS011;3627;46.544;14.944;2024-02-14T06:39:06;2.03;;;1.93;;
7171;SDS011;3627;46.544;14.944;2024-02-14T06:41:34;1.90;;;1.80;;
7171;SDS011;3627;46.544;14.944;2024-02-14T06:44:00;1.83;;;1.73;;
7171;SDS011;3627;46.544;14.944;2024-02-14T06:46:26;1.90;;;1.80;;
7171;SDS011;3627;46.544;14.944;2024-02-14T06:48:53;1.80;;;1.70;;
7171;SDS011;3627;46.544;14.944;2024-02-14T06:51:21;1.80;;;1.70;;
7171;SDS011;3627;46.544;14.944;2024-02-14T06:53:47;1.90;;;1.80;;
7171;SDS011;3627;46.544;14.944;2024-02-14T06:56:13;1.80;;;1.70;;
7171;SDS011;3627;46.544;14.944;2024-02-14T06:58:41;1.90;;;1.80;;
7171;SDS011;3627;46.544;14.944;2024-02-14T07:01:08;1.93;;;1.83;;
7171;SDS011;3627;46.544;14.944;2024-02-14T07:03:37;1.73;;;1.73;;
7171;SDS011;3627;46.544;14.944;2024-02-14T07:06:04;1.90;;;1.80;;
7171;SDS011;3627;46.544;14.944;2024-02-14T07:08:30;1.60;;;1.60;;
7171;SDS011;3627;46.544;14.944;2024-02-14T07:10:57;1.70;;;1.70;;
7171;SDS011;3627;46.544;14.944;2024-02-14T07:13:23;1.73;;;1.73;;
7171;SDS011;3627;46.544;14.944;2024-02-14T07:15:51;1.60;;;1.60;;
7171;SDS011;3627;46.544;14.944;2024-02-14T07:18:17;1.50;;;1.50;;
7171;SDS011;3627;46.544;14.944;2024-02-14T07:20:45;1.40;;;1.40;;
7171;SDS011;3627;46.544;14.944;2024-02-14T07:23:11;1.52;;;1.52;;
7171;SDS011;3627;46.544;14.944;2024-02-14T07:25:38;1.40;;;1.40;;
7171;SDS011;3627;46.544;14.944;2024-02-14T07:28:04;1.38;;;1.38;;
7171;SDS011;3627;46.544;14.944;2024-02-14T07:30:30;1.30;;;1.30;;
7171;SDS011;3627;46.544;14.944;2024-02-14T07:32:58;1.10;;;1.10;;
7171;SDS011;3627;46.544;14.944;2024-02-14T07:35:24;1.13;;;1.13;;
7171;SDS011;3627;46.544;14.944;2024-02-14T07:37:51;1.20;;;1.20;;
7171;SDS011;3627;46.544;14.944;2024-02-14T07:40:18;1.10;;;1.10;;
7171;SDS011;3627;46.544;14.944;2024-02-14T07:42:44;1.02;;;1.02;;
7171;SDS011;3627;46.544;14.944;2024-02-14T07:45:10;1.00;;;1.00;;
7171;SDS011;3627;46.544;14.944;2024-02-14T07:47:37;1.00;;;1.00;;
7171;SDS011;3627;46.544;14.944;2024-02-14T07:50:07;0.90;;;0.90;;
7171;SDS011;3627;46.544;14.944;2024-02-14T07:52:33;1.00;;;1.00;;
7171;SDS011;3627;46.544;14.944;2024-02-14T07:55:01;0.90;;;0.90;;
7171;SDS011;3627;46.544;14.944;2024-02-14T07:57:27;1.00;;;1.00;;
7171;SDS011;3627;46.544;14.944;2024-02-14T07:59:54;0.90;;;0.90;;
7171;SDS011;3627;46.544;14.944;2024-02-14T08:02:20;0.82;;;0.82;;
7171;SDS011;3627;46.544;14.944;2024-02-14T08:04:46;0.88;;;0.88;;
7171;SDS011;3627;46.544;14.944;2024-02-14T08:07:14;0.88;;;0.88;;
7171;SDS011;3627;46.544;14.944;2024-02-14T08:09:41;0.60;;;0.60;;
7171;SDS011;3627;46.544;14.944;2024-02-14T08:12:07;0.70;;;0.70;;
7171;SDS011;3627;46.544;14.944;2024-02-14T08:14:33;0.80;;;0.80;;
7171;SDS011;3627;46.544;14.944;2024-02-14T08:17:00;0.55;;;0.55;;
7171;SDS011;3627;46.544;14.944;2024-02-14T08:19:26;0.70;;;0.70;;
7171;SDS011;3627;46.544;14.944;2024-02-14T08:21:52;0.68;;;0.68;;
7171;SDS011;3627;46.544;14.944;2024-02-14T08:24:24;0.60;;;0.60;;
7171;SDS011;3627;46.544;14.944;2024-02-14T08:26:50;0.75;;;0.75;;
7171;SDS011;3627;46.544;14.944;2024-02-14T08:29:16;0.70;;;0.70;;
7171;SDS011;3627;46.544;14.944;2024-02-14T08:31:43;0.60;;;0.60;;
7171;SDS011;3627;46.544;14.944;2024-02-14T08:34:09;0.55;;;0.55;;
7171;SDS011;3627;46.544;14.944;2024-02-14T08:36:36;0.60;;;0.60;;
7171;SDS011;3627;46.544;14.944;2024-02-14T08:39:05;0.60;;;0.60;;
7171;SDS011;3627;46.544;14.944;2024-02-14T08:41:33;0.70;;;0.70;;
7171;SDS011;3627;46.544;14.944;2024-02-14T08:44:00;0.55;;;0.55;;
7171;SDS011;3627;46.544;14.944;2024-02-14T08:46:26;0.50;;;0.50;;
7171;SDS011;3627;46.544;14.944;2024-02-14T08:48:53;0.40;;;0.40;;
7171;SDS011;3627;46.544;14.944;2024-02-14T08:51:19;0.40;;;0.40;;
7171;SDS011;3627;46.544;14.944;2024-02-14T08:53:46;0.40;;;0.40;;
7171;SDS011;3627;46.544;14.944;2024-02-14T08:56:12;0.30;;;0.30;;
7171;SDS011;3627;46.544;14.944;2024-02-14T08:58:40;0.30;;;0.30;;
7171;SDS011;3627;46.544;14.944;2024-02-14T09:01:07;0.28;;;0.28;;
7171;SDS011;3627;46.544;14.944;2024-02-14T09:03:34;0.20;;;0.20;;
7171;SDS011;3627;46.544;14.944;2024-02-14T09:06:00;0.20;;;0.20;;
7171;SDS011;3627;46.544;14.944;2024-02-14T09:08:28;0.20;;;0.20;;
7171;SDS011;3627;46.544;14.944;2024-02-14T09:10:56;0.40;;;0.40;;
7171;SDS011;3627;46.544;14.944;2024-02-14T09:13:22;0.30;;;0.30;;
7171;SDS011;3627;46.544;14.944;2024-02-14T09:15:51;0.30;;;0.30;;
7171;SDS011;3627;46.544;14.944;2024-02-14T09:18:18;0.30;;;0.30;;
7171;SDS011;3627;46.544;14.944;2024-02-14T09:20:44;0.40;;;0.40;;
7171;SDS011;3627;46.544;14.944;2024-02-14T09:23:11;0.30;;;0.30;;
7171;SDS011;3627;46.544;14.944;2024-02-14T09:25:38;0.40;;;0.40;;
7171;SDS011;3627;46.544;14.944;2024-02-14T09:28:05;0.45;;;0.45;;
7171;SDS011;3627;46.544;14.944;2024-02-14T09:30:32;0.40;;;0.40;;
7171;SDS011;3627;46.544;14.944;2024-02-14T09:33:00;0.30;;;0.30;;
7171;SDS011;3627;46.544;14.944;2024-02-14T09:35:26;0.40;;;0.40;;
7171;SDS011;3627;46.544;14.944;2024-02-14T09:37:52;0.30;;;0.30;;
7171;SDS011;3627;46.544;14.944;2024-02-14T09:40:19;0.20;;;0.20;;
7171;SDS011;3627;46.544;14.944;2024-02-14T09:42:53;0.20;;;0.20;;
7171;SDS011;3627;46.544;14.944;2024-02-14T09:45:19;0.28;;;0.28;;
7171;SDS011;3627;46.544;14.944;2024-02-14T09:47:45;0.20;;;0.20;;
7171;SDS011;3627;46.544;14.944;2024-02-14T09:50:12;0.40;;;0.40;;
7171;SDS011;3627;46.544;14.944;2024-02-14T09:52:39;0.22;;;0.22;;
7171;SDS011;3627;46.544;14.944;2024-02-14T09:55:07;0.30;;;0.30;;
7171;SDS011;3627;46.544;14.944;2024-02-14T09:57:34;0.30;;;0.30;;
7171;SDS011;3627;46.544;14.944;2024-02-14T10:00:02;0.40;;;0.40;;
7171;SDS011;3627;46.544;14.944;2024-02-14T10:02:29;0.20;;;0.20;;
7171;SDS011;3627;46.544;14.944;2024-02-14T10:04:56;0.20;;;0.20;;
7171;SDS011;3627;46.544;14.944;2024-02-14T10:07:24;0.28;;;0.28;;
7171;SDS011;3627;46.544;14.944;2024-02-14T10:09:50;0.20;;;0.20;;
7171;SDS011;3627;46.544;14.944;2024-02-14T10:12:16;0.32;;;0.32;;
7171;SDS011;3627;46.544;14.944;2024-02-14T10:14:43;0.20;;;0.20;;
7171;SDS011;3627;46.544;14.944;2024-02-14T10:17:16;0.28;;;0.28;;
7171;SDS011;3627;46.544;14.944;2024-02-14T10:19:43;0.30;;;0.30;;
7171;SDS011;3627;46.544;14.944;2024-02-14T10:22:09;0.20;;;0.20;;
7171;SDS011;3627;46.544;14.944;2024-02-14T10:24:37;0.35;;;0.35;;
7171;SDS011;3627;46.544;14.944;2024-02-14T10:27:05;0.50;;;0.50;;
7171;SDS011;3627;46.544;14.944;2024-02-14T10:29:33;0.55;;;0.55;;
7171;SDS011;3627;46.544;14.944;2024-02-14T10:32:00;0.50;;;0.50;;
7171;SDS011;3627;46.544;14.944;2024-02-14T10:34:26;0.70;;;0.70;;
7171;SDS011;3627;46.544;14.944;2024-02-14T10:36:53;0.70;;;0.70;;
7171;SDS011;3627;46.544;14.944;2024-02-14T10:39:22;0.80;;;0.80;;
7171;SDS011;3627;46.544;14.944;2024-02-14T10:41:51;0.90;;;0.90;;
7171;SDS011;3627;46.544;14.944;2024-02-14T10:44:18;0.80;;;0.80;;
7171;SDS011;3627;46.544;14.944;2024-02-14T10:46:44;0.88;;;0.88;;
7171;SDS011;3627;46.544;14.944;2024-02-14T10:49:12;0.88;;;0.88;;
7171;SDS011;3627;46.544;14.944;2024-02-14T10:51:41;0.90;;;0.90;;
7171;SDS011;3627;46.544;14.944;2024-02-14T10:54:09;0.98;;;0.98;;
7171;SDS011;3627;46.544;14.944;2024-02-14T10:56:37;1.10;;;1.10;;
7171;SDS011;3627;46.544;14.944;2024-02-14T10:59:06;1.10;;;1.10;;
7171;SDS011;3627;46.544;14.944;2024-02-14T11:01:34;1.05;;;1.05;;
7171;SDS011;3627;46.544;14.944;2024-02-14T11:04:01;1.20;;;1.20;;
7171;SDS011;3627;46.544;14.944;2024-02-14T11:06:29;1.17;;;1.17;;
7171;SDS011;3627;46.544;14.944;2024-02-14T11:08:57;1.10;;;1.10;;
7171;SDS011;3627;46.544;14.944;2024-02-14T11:11:24;1.20;;;1.20;;
7171;SDS011;3627;46.544;14.944;2024-02-14T11:13:52;1.15;;;1.15;;
7171;SDS011;3627;46.544;14.944;2024-02-14T11:16:20;1.10;;;1.10;;
7171;SDS011;3627;46.544;14.944;2024-02-14T11:18:49;1.20;;;1.20;;
7171;SDS011;3627;46.544;14.944;2024-02-14T11:21:15;1.23;;;1.23;;
7171;SDS011;3627;46.544;14.944;2024-02-14T11:23:52;1.30;;;1.30;;
7171;SDS011;3627;46.544;14.944;2024-02-14T11:26:18;1.10;;;1.10;;
7171;SDS011;3627;46.544;14.944;2024-02-14T11:28:45;1.20;;;1.20;;
7171;SDS011;3627;46.544;14.944;2024-02-14T11:31:15;1.10;;;1.10;;
7171;SDS011;3627;46.544;14.944;2024-02-14T11:33:44;1.23;;;1.23;;
7171;SDS011;3627;46.544;14.944;2024-02-14T11:36:11;1.10;;;1.10;;
7171;SDS011;3627;46.544;14.944;2024-02-14T11:38:40;1.20;;;1.20;;
7171;SDS011;3627;46.544;14.944;2024-02-14T11:41:06;1.20;;;1.20;;
7171;SDS011;3627;46.544;14.944;2024-02-14T11:43:34;1.20;;;1.20;;
7171;SDS011;3627;46.544;14.944;2024-02-14T11:46:01;1.20;;;1.20;;
7171;SDS011;3627;46.544;14.944;2024-02-14T11:48:29;1.20;;;1.20;;
7171;SDS011;3627;46.544;14.944;2024-02-14T11:50:58;1.20;;;1.20;;
7171;SDS011;3627;46.544;14.944;2024-02-14T11:53:24;1.30;;;1.30;;
7171;SDS011;3627;46.544;14.944;2024-02-14T11:55:53;1.13;;;1.13;;
7171;SDS011;3627;46.544;14.944;2024-02-14T11:58:19;1.20;;;1.20;;
7171;SDS011;3627;46.544;14.944;2024-02-14T12:00:46;1.20;;;1.20;;
7171;SDS011;3627;46.544;14.944;2024-02-14T12:03:15;1.20;;;1.20;;
7171;SDS011;3627;46.544;14.944;2024-02-14T12:05:42;1.20;;;1.20;;
7171;SDS011;3627;46.544;14.944;2024-02-14T12:08:10;1.30;;;1.30;;
7171;SDS011;3627;46.544;14.944;2024-02-14T12:10:37;1.23;;;1.23;;
7171;SDS011;3627;46.544;14.944;2024-02-14T12:13:07;1.27;;;1.27;;
7171;SDS011;3627;46.544;14.944;2024-02-14T12:15:37;1.10;;;1.10;;
7171;SDS011;3627;46.544;14.944;2024-02-14T12:18:04;1.13;;;1.13;;
7171;SDS011;3627;46.544;14.944;2024-02-14T12:20:31;1.30;;;1.30;;
7171;SDS011;3627;46.544;14.944;2024-02-14T12:22:58;1.13;;;1.13;;
7171;SDS011;3627;46.544;14.944;2024-02-14T12:25:26;1.20;;;1.20;;
7171;SDS011;3627;46.544;14.944;2024-02-14T12:27:52;1.20;;;1.20;;
7171;SDS011;3627;46.544;14.944;2024-02-14T12:30:19;1.13;;;1.13;;
7171;SDS011;3627;46.544;14.944;2024-02-14T12:32:45;1.30;;;1.30;;
7171;SDS011;3627;46.544;14.944;2024-02-14T12:35:11;1.17;;;1.17;;
7171;SDS011;3627;46.544;14.944;2024-02-14T12:37:38;1.20;;;1.20;;
7171;SDS011;3627;46.544;14.944;2024-02-14T12:40:05;1.10;;;1.10;;
7171;SDS011;3627;46.544;14.944;2024-02-14T12:42:33;1.20;;;1.20;;
7171;SDS011;3627;46.544;14.944;2024-02-14T12:45:00;1.30;;;1.30;;
7171;SDS011;3627;46.544;14.944;2024-02-14T12:47:27;1.20;;;1.20;;
7171;SDS011;3627;46.544;14.944;2024-02-14T12:49:57;1.10;;;1.10;;
7171;SDS011;3627;46.544;14.944;2024-02-14T12:52:24;1.25;;;1.25;;
7171;SDS011;3627;46.544;14.944;2024-02-14T12:54:50;1.10;;;1.10;;
7171;SDS011;3627;46.544;14.944;2024-02-14T12:57:17;1.10;;;1.10;;
7171;SDS011;3627;46.544;14.944;2024-02-14T12:59:47;1.30;;;1.30;;
7171;SDS011;3627;46.544;14.944;2024-02-14T13:02:13;1.20;;;1.20;;
7171;SDS011;3627;46.544;14.944;2024-02-14T13:04:40;1.20;;;1.20;;
7171;SDS011;3627;46.544;14.944;2024-02-14T13:07:07;1.10;;;1.10;;
7171;SDS011;3627;46.544;14.944;2024-02-14T13:09:34;1.10;;;1.10;;
7171;SDS011;3627;46.544;14.944;2024-02-14T13:12:00;1.10;;;1.10;;
7171;SDS011;3627;46.544;14.944;2024-02-14T13:14:26;1.30;;;1.30;;
7171;SDS011;3627;46.544;14.944;2024-02-14T13:16:57;1.20;;;1.20;;
7171;SDS011;3627;46.544;14.944;2024-02-14T13:19:23;1.10;;;1.10;;
7171;SDS011;3627;46.544;14.944;2024-02-14T13:21:50;1.20;;;1.20;;
7171;SDS011;3627;46.544;14.944;2024-02-14T13:24:16;1.40;;;1.40;;
7171;SDS011;3627;46.544;14.944;2024-02-14T13:26:43;1.20;;;1.20;;
7171;SDS011;3627;46.544;14.944;2024-02-14T13:29:10;1.20;;;1.20;;
7171;SDS011;3627;46.544;14.944;2024-02-14T13:31:36;1.10;;;1.10;;
7171;SDS011;3627;46.544;14.944;2024-02-14T13:34:04;1.15;;;1.15;;
7171;SDS011;3627;46.544;14.944;2024-02-14T13:36:30;1.30;;;1.30;;
7171;SDS011;3627;46.544;14.944;2024-02-14T13:38:57;1.20;;;1.20;;
7171;SDS011;3627;46.544;14.944;2024-02-14T13:41:25;1.30;;;1.30;;
7171;SDS011;3627;46.544;14.944;2024-02-14T13:43:51;1.20;;;1.20;;
7171;SDS011;3627;46.544;14.944;2024-02-14T13:46:18;1.20;;;1.20;;
7171;SDS011;3627;46.544;14.944;2024-02-14T13:48:44;1.30;;;1.30;;
7171;SDS011;3627;46.544;14.944;2024-02-14T13:51:12;1.10;;;1.10;;
7171;SDS011;3627;46.544;14.944;2024-02-14T13:53:38;1.20;;;1.20;;
7171;SDS011;3627;46.544;14.944;2024-02-14T13:56:05;1.13;;;1.13;;
7171;SDS011;3627;46.544;14.944;2024-02-14T13:58:32;1.30;;;1.30;;
7171;SDS011;3627;46.544;14.944;2024-02-14T14:00:58;1.10;;;1.10;;
7171;SDS011;3627;46.544;14.944;2024-02-14T14:03:25;1.15;;;1.15;;
7171;SDS011;3627;46.544;14.944;2024-02-14T14:05:51;1.20;;;1.20;;
7171;SDS011;3627;46.544;14.944;2024-02-14T14:08:19;1.10;;;1.10;;
7171;SDS011;3627;46.544;14.944;2024-02-14T14:10:45;1.10;;;1.10;;
7171;SDS011;3627;46.544;14.944;2024-02-14T14:13:12;1.10;;;1.10;;
7171;SDS011;3627;46.544;14.944;2024-02-14T14:15:39;1.10;;;1.10;;
7171;SDS011;3627;46.544;14.944;2024-02-14T14:18:06;1.30;;;1.30;;
7171;SDS011;3627;46.544;14.944;2024-02-14T14:20:33;1.20;;;1.20;;
7171;SDS011;3627;46.544;14.944;2024-02-14T14:22:59;1.40;;;1.40;;
7171;SDS011;3627;46.544;14.944;2024-02-14T14:25:29;1.23;;;1.23;;
7171;SDS011;3627;46.544;14.944;2024-02-14T14:27:57;1.30;;;1.30;;
7171;SDS011;3627;46.544;14.944;2024-02-14T14:30:23;1.27;;;1.27;;
7171;SDS011;3627;46.544;14.944;2024-02-14T14:32:50;1.10;;;1.10;;
7171;SDS011;3627;46.544;14.944;2024-02-14T14:35:16;1.20;;;1.20;;
7171;SDS011;3627;46.544;14.944;2024-02-14T14:37:42;1.27;;;1.27;;
7171;SDS011;3627;46.544;14.944;2024-02-14T14:40:09;1.15;;;1.15;;
7171;SDS011;3627;46.544;14.944;2024-02-14T14:42:37;1.20;;;1.20;;
7171;SDS011;3627;46.544;14.944;2024-02-14T14:45:04;1.20;;;1.20;;
7171;SDS011;3627;46.544;14.944;2024-02-14T14:47:31;1.17;;;1.17;;
7171;SDS011;3627;46.544;14.944;2024-02-14T14:49:57;1.10;;;1.10;;
7171;SDS011;3627;46.544;14.944;2024-02-14T14:52:24;1.33;;;1.33;;
7171;SDS011;3627;46.544;14.944;2024-02-14T14:54:51;1.17;;;1.17;;
7171;SDS011;3627;46.544;14.944;2024-02-14T14:57:18;1.13;;;1.13;;
7171;SDS011;3627;46.544;14.944;2024-02-14T14:59:45;1.10;;;1.10;;